createdAt,value
2022-10-22T00:00:39.544Z,18.25
2022-10-22T00:03:06.917Z,17.35
2022-10-22T00:05:34.602Z,17.17
2022-10-22T00:08:01.639Z,16.70
2022-10-22T00:10:29.513Z,15.73
2022-10-22T00:12:56.731Z,18.75
2022-10-22T00:15:24.094Z,16.83
2022-10-22T00:17:51.064Z,16.25
2022-10-22T00:20:18.935Z,16.13
2022-10-22T00:22:46.390Z,17.60
2022-10-22T00:25:13.864Z,16.42
2022-10-22T00:27:41.703Z,18.20
2022-10-22T00:30:12.830Z,16.95
2022-10-22T00:32:40.435Z,16.77
2022-10-22T00:35:08.038Z,17.60
2022-10-22T00:37:35.186Z,17.10
2022-10-22T00:40:02.495Z,16.08
2022-10-22T00:42:30.609Z,16.25
2022-10-22T00:45:12.690Z,16.95
2022-10-22T00:47:44.508Z,17.23
2022-10-22T00:50:16.226Z,17.45
2022-10-22T00:52:44.310Z,17.10
2022-10-22T00:55:13.272Z,15.45
2022-10-22T00:57:40.819Z,16.98
2022-10-22T01:00:09.060Z,18.88
2022-10-22T01:02:37.981Z,17.95
2022-10-22T01:05:05.640Z,17.02
2022-10-22T01:07:38.639Z,16.73
2022-10-22T01:10:12.583Z,17.90
2022-10-22T01:13:05.993Z,16.23
2022-10-22T01:15:58.805Z,16.17
2022-10-22T01:18:38.416Z,16.98
2022-10-22T01:21:41.637Z,18.67
2022-10-22T01:24:09.004Z,18.25
2022-10-22T01:26:57.979Z,17.92
2022-10-22T01:29:27.968Z,19.58
2022-10-22T01:32:15.924Z,17.30
2022-10-22T01:34:47.464Z,17.60
2022-10-22T01:37:15.807Z,19.30
2022-10-22T01:39:45.794Z,19.38
2022-10-22T01:42:14.495Z,19.25
2022-10-22T01:44:41.892Z,20.15
2022-10-22T01:47:21.734Z,22.58
2022-10-22T01:49:57.712Z,19.65
2022-10-22T01:52:32.158Z,19.38
2022-10-22T01:55:31.581Z,18.10
2022-10-22T01:58:16.658Z,16.75
2022-10-22T02:00:51.289Z,19.25
2022-10-22T02:03:26.022Z,17.30
2022-10-22T02:05:58.113Z,19.85
2022-10-22T02:08:31.345Z,18.48
2022-10-22T02:11:00.831Z,18.05
2022-10-22T02:13:35.390Z,17.75
2022-10-22T02:16:04.954Z,17.10
2022-10-22T02:18:37.617Z,16.40
2022-10-22T02:23:36.419Z,16.38
2022-10-22T02:26:39.336Z,16.73
2022-10-22T02:29:22.237Z,16.70
2022-10-22T02:31:52.097Z,14.32
2022-10-22T02:34:24.065Z,14.27
2022-10-22T02:36:52.353Z,13.95
2022-10-22T02:39:21.234Z,15.63
2022-10-22T02:41:49.359Z,16.60
2022-10-22T02:44:16.418Z,15.35
2022-10-22T02:46:43.969Z,14.23
2022-10-22T02:49:11.355Z,14.38
2022-10-22T02:51:38.586Z,16.17
2022-10-22T02:54:06.098Z,16.08
2022-10-22T02:56:33.885Z,15.52
2022-10-22T02:59:01.211Z,15.38
2022-10-22T03:01:28.318Z,15.77
2022-10-22T03:03:55.421Z,15.80
2022-10-22T03:06:22.809Z,15.52
2022-10-22T03:08:50.556Z,13.88
2022-10-22T03:11:18.075Z,15.50
2022-10-22T03:13:45.477Z,16.13
2022-10-22T03:16:12.794Z,17.10
2022-10-22T03:18:40.224Z,16.83
2022-10-22T03:21:31.349Z,15.27
2022-10-22T03:24:00.194Z,15.38
2022-10-22T03:26:27.406Z,16.95
2022-10-22T03:28:55.235Z,17.70
2022-10-22T03:31:22.650Z,15.10
2022-10-22T03:33:50.192Z,18.75
2022-10-22T03:36:17.890Z,17.85
2022-10-22T03:38:45.576Z,19.63
2022-10-22T03:41:12.691Z,19.15
2022-10-22T03:43:41.313Z,18.05
2022-10-22T03:46:08.427Z,17.20
2022-10-22T03:48:35.659Z,15.50
2022-10-22T03:51:02.959Z,13.88
2022-10-22T03:53:30.152Z,16.67
2022-10-22T03:55:57.519Z,13.45
2022-10-22T03:58:24.714Z,11.13
2022-10-22T04:00:51.924Z,13.07
2022-10-22T04:03:19.256Z,12.98
2022-10-22T04:05:46.502Z,14.18
2022-10-22T04:08:13.853Z,12.13
2022-10-22T04:10:41.288Z,12.88
2022-10-22T04:13:08.522Z,11.60
2022-10-22T04:15:36.307Z,12.00
2022-10-22T04:18:03.713Z,11.07
2022-10-22T04:20:31.163Z,10.73
2022-10-22T04:22:58.271Z,10.75
2022-10-22T04:25:25.970Z,10.80
2022-10-22T04:27:53.180Z,10.95
2022-10-22T04:30:20.467Z,12.27
2022-10-22T04:32:48.000Z,10.68
2022-10-22T04:35:15.934Z,9.82
2022-10-22T04:37:43.385Z,10.40
2022-10-22T04:40:11.647Z,9.05
2022-10-22T04:42:38.950Z,9.63
2022-10-22T04:45:06.955Z,10.25
2022-10-22T04:47:34.168Z,9.85
2022-10-22T04:50:01.312Z,9.02
2022-10-22T04:52:28.677Z,10.23
2022-10-22T04:54:56.102Z,10.85
2022-10-22T04:57:23.680Z,11.18
2022-10-22T04:59:51.163Z,10.68
2022-10-22T05:02:18.552Z,11.45
2022-10-22T05:04:45.968Z,12.30
2022-10-22T05:07:13.345Z,10.98
2022-10-22T05:09:40.853Z,10.45
2022-10-22T05:12:08.252Z,10.10
2022-10-22T05:14:35.820Z,10.55
2022-10-22T05:17:03.321Z,9.15
2022-10-22T05:19:31.858Z,11.35
2022-10-22T05:22:01.949Z,11.32
2022-10-22T05:24:31.185Z,10.40
2022-10-22T05:26:59.696Z,11.85
2022-10-22T05:29:27.881Z,10.32
2022-10-22T05:31:55.347Z,9.93
2022-10-22T05:34:23.025Z,10.48
2022-10-22T05:36:50.154Z,8.90
2022-10-22T05:39:17.757Z,9.35
2022-10-22T05:41:45.140Z,8.23
2022-10-22T05:44:13.246Z,8.88
2022-10-22T05:46:40.807Z,8.60
2022-10-22T05:49:08.433Z,10.40
2022-10-22T05:51:37.666Z,11.75
2022-10-22T05:54:07.923Z,9.07
2022-10-22T05:56:37.400Z,11.23
2022-10-22T05:59:05.398Z,10.57
2022-10-22T06:01:35.807Z,9.65
2022-10-22T06:04:06.720Z,10.23
2022-10-22T06:06:41.128Z,9.73
2022-10-22T06:12:09.191Z,9.95
2022-10-22T06:14:36.831Z,7.18
2022-10-22T06:17:04.018Z,9.15
2022-10-22T06:19:31.629Z,8.82
2022-10-22T06:21:58.796Z,9.55
2022-10-22T06:24:26.358Z,8.07
2022-10-22T06:26:54.254Z,8.15
2022-10-22T06:29:21.745Z,8.85
2022-10-22T06:31:49.887Z,8.45
2022-10-22T06:34:19.229Z,8.60
2022-10-22T06:36:47.108Z,8.15
2022-10-22T06:39:17.158Z,8.20
2022-10-22T06:41:45.063Z,9.30
2022-10-22T06:44:20.537Z,9.25
2022-10-22T06:46:52.439Z,10.32
2022-10-22T06:49:20.303Z,11.40
2022-10-22T06:51:51.663Z,10.43
2022-10-22T06:54:19.113Z,10.32
2022-10-22T06:56:46.561Z,9.63
2022-10-22T06:59:14.293Z,11.50
2022-10-22T07:01:42.709Z,11.85
2022-10-22T07:04:11.801Z,14.55
2022-10-22T07:06:39.213Z,12.00
2022-10-22T07:09:09.238Z,12.20
2022-10-22T07:11:42.667Z,11.57
2022-10-22T07:14:10.546Z,11.63
2022-10-22T07:16:38.199Z,12.48
2022-10-22T07:19:06.028Z,12.65
2022-10-22T07:21:33.485Z,11.95
2022-10-22T07:24:00.631Z,11.13
2022-10-22T07:26:31.248Z,12.23
2022-10-22T07:28:59.821Z,11.40
2022-10-22T07:31:27.263Z,12.27
2022-10-22T07:33:54.759Z,12.35
2022-10-22T07:36:22.781Z,12.73
2022-10-22T07:38:55.638Z,12.95
2022-10-22T07:41:23.875Z,11.70
2022-10-22T07:43:51.302Z,15.27
2022-10-22T07:46:19.055Z,13.05
2022-10-22T07:48:46.621Z,12.52
2022-10-22T07:51:14.300Z,14.40
2022-10-22T07:53:42.082Z,12.80
2022-10-22T07:56:09.811Z,13.25
2022-10-22T07:58:37.016Z,13.43
2022-10-22T08:01:07.344Z,13.65
2022-10-22T08:03:35.081Z,14.80
2022-10-22T08:06:03.252Z,13.35
2022-10-22T08:08:31.280Z,13.38
2022-10-22T08:11:00.880Z,14.73
2022-10-22T08:13:30.875Z,14.18
2022-10-22T08:16:01.623Z,15.80
2022-10-22T08:18:29.605Z,17.35
2022-10-22T08:20:57.094Z,18.05
2022-10-22T08:23:27.564Z,16.45
2022-10-22T08:25:57.105Z,18.30
2022-10-22T08:28:24.407Z,17.95
2022-10-22T08:30:51.907Z,20.38
2022-10-22T08:33:19.319Z,19.40
2022-10-22T08:35:53.076Z,18.58
2022-10-22T08:38:21.024Z,20.25
2022-10-22T08:40:54.526Z,20.13
2022-10-22T08:43:52.651Z,18.30
2022-10-22T08:46:25.973Z,20.02
2022-10-22T08:48:59.786Z,19.13
2022-10-22T08:51:39.744Z,18.60
2022-10-22T08:54:23.385Z,18.73
2022-10-22T08:57:10.093Z,19.40
2022-10-22T09:00:02.820Z,18.20
2022-10-22T09:03:18.466Z,17.00
2022-10-22T09:06:18.606Z,17.00
2022-10-22T09:08:47.997Z,15.98
2022-10-22T09:11:26.234Z,17.20
2022-10-22T09:13:57.003Z,16.08
2022-10-22T09:16:43.602Z,16.73
2022-10-22T09:19:48.538Z,15.75
2022-10-22T09:22:31.286Z,12.90
2022-10-22T09:25:21.831Z,14.07
2022-10-22T09:27:50.565Z,14.65
2022-10-22T09:30:20.231Z,12.85
2022-10-22T09:32:52.521Z,12.05
2022-10-22T09:35:23.592Z,11.77
2022-10-22T09:37:55.109Z,12.57
2022-10-22T09:40:23.297Z,11.20
2022-10-22T09:42:50.705Z,11.63
2022-10-22T09:45:24.784Z,11.70
2022-10-22T09:48:12.722Z,10.88
2022-10-22T09:50:45.082Z,10.15
2022-10-22T09:53:23.764Z,10.05
2022-10-22T09:58:27.815Z,9.93
2022-10-22T10:01:01.859Z,8.80
2022-10-22T10:03:33.299Z,9.27
2022-10-22T10:06:05.982Z,8.23
2022-10-22T10:08:34.545Z,8.70
2022-10-22T10:11:16.930Z,7.97
2022-10-22T10:13:47.988Z,7.95
2022-10-22T10:16:33.569Z,8.27
2022-10-22T10:19:06.898Z,7.53
2022-10-22T10:22:04.342Z,6.90
2022-10-22T10:25:03.475Z,7.72
2022-10-22T10:27:50.460Z,7.22
2022-10-22T10:30:20.813Z,6.78
2022-10-22T10:33:02.507Z,7.60
2022-10-22T10:35:35.574Z,6.50
2022-10-22T10:38:29.665Z,6.13
2022-10-22T10:41:08.932Z,5.72
2022-10-22T10:44:06.178Z,5.68
2022-10-22T10:46:51.899Z,6.53
2022-10-22T10:52:25.480Z,4.10
2022-10-22T10:55:01.847Z,4.10
2022-10-22T10:57:57.371Z,4.90
2022-10-22T11:00:24.968Z,3.65
2022-10-22T11:03:31.746Z,3.40
2022-10-22T11:06:03.726Z,3.33
2022-10-22T11:08:37.374Z,3.05
2022-10-22T11:11:08.769Z,3.88
2022-10-22T11:13:52.687Z,3.60
2022-10-22T11:16:51.291Z,3.78
2022-10-22T11:19:51.029Z,2.97
2022-10-22T11:22:50.539Z,2.80
2022-10-22T11:25:45.545Z,2.55
2022-10-22T11:28:25.298Z,2.80
2022-10-22T11:31:17.359Z,2.83
2022-10-22T11:34:15.306Z,3.20
2022-10-22T11:39:51.541Z,3.03
2022-10-22T11:42:30.394Z,3.20
2022-10-22T11:45:07.070Z,2.80
2022-10-22T11:47:51.931Z,3.17
2022-10-22T11:50:25.469Z,2.70
2022-10-22T11:53:04.789Z,2.92
2022-10-22T11:55:51.884Z,2.38
2022-10-22T11:58:47.660Z,3.40
2022-10-22T12:01:22.975Z,5.82
2022-10-22T12:04:18.796Z,3.60
2022-10-22T12:06:55.718Z,3.33
2022-10-22T12:09:26.664Z,2.35
2022-10-22T12:11:55.953Z,2.40
2022-10-22T12:14:35.882Z,2.95
2022-10-22T12:17:10.453Z,2.63
2022-10-22T12:19:50.567Z,2.70
2022-10-22T12:22:22.489Z,2.15
2022-10-22T12:24:55.466Z,1.92
2022-10-22T12:27:36.710Z,2.88
2022-10-22T12:30:18.962Z,3.38
2022-10-22T12:32:46.409Z,2.33
2022-10-22T12:35:22.029Z,2.47
2022-10-22T12:37:54.867Z,2.72
2022-10-22T12:40:27.593Z,2.22
2022-10-22T12:43:02.552Z,1.95
2022-10-22T12:45:32.252Z,2.85
2022-10-22T12:48:25.474Z,2.08
2022-10-22T12:51:00.480Z,3.45
2022-10-22T12:53:38.191Z,2.60
2022-10-22T12:56:12.593Z,2.42
2022-10-22T12:58:43.761Z,1.93
2022-10-22T13:01:17.467Z,1.85
2022-10-22T13:03:50.399Z,1.58
2022-10-22T13:06:20.596Z,1.90
2022-10-22T13:09:02.302Z,2.60
2022-10-22T13:11:50.006Z,2.05
2022-10-22T13:14:34.508Z,1.85
2022-10-22T13:17:15.482Z,1.85
2022-10-22T13:20:02.471Z,2.13
2022-10-22T13:22:41.279Z,1.45
2022-10-22T13:25:19.362Z,2.38
2022-10-22T13:27:48.040Z,1.55
2022-10-22T13:30:36.902Z,1.58
2022-10-22T13:33:07.203Z,1.63
2022-10-22T13:35:38.552Z,1.50
2022-10-22T13:38:22.528Z,2.35
2022-10-22T13:40:50.578Z,1.65
2022-10-22T13:43:18.659Z,1.88
2022-10-22T13:45:52.432Z,1.77
2022-10-22T13:48:22.171Z,5.15
2022-10-22T13:50:50.699Z,2.35
2022-10-22T13:53:27.325Z,2.22
2022-10-22T13:55:55.756Z,2.80
2022-10-22T13:58:25.126Z,1.60
2022-10-22T14:00:58.278Z,3.05
2022-10-22T14:03:29.892Z,1.80
2022-10-22T14:05:57.245Z,2.38
2022-10-22T14:08:26.221Z,2.20
2022-10-22T14:10:53.820Z,1.52
2022-10-22T14:13:21.905Z,2.45
2022-10-22T14:15:50.852Z,2.28
2022-10-22T14:18:27.656Z,1.75
2022-10-22T14:20:58.098Z,2.05
2022-10-22T14:23:28.112Z,2.25
2022-10-22T14:25:56.062Z,1.92
2022-10-22T14:28:23.302Z,2.13
2022-10-22T14:30:54.528Z,1.88
2022-10-22T14:33:31.977Z,2.10
2022-10-22T14:36:02.116Z,1.70
2022-10-22T14:38:30.346Z,2.40
2022-10-22T14:40:59.865Z,2.15
2022-10-22T14:43:31.938Z,2.08
2022-10-22T14:45:59.487Z,2.60
2022-10-22T14:48:26.907Z,2.50
2022-10-22T14:50:55.323Z,2.28
2022-10-22T14:53:23.010Z,2.65
2022-10-22T14:55:51.880Z,2.60
2022-10-22T14:58:18.914Z,2.88
2022-10-22T15:00:46.168Z,2.03
2022-10-22T15:03:14.814Z,2.17
2022-10-22T15:05:46.740Z,2.03
2022-10-22T15:08:15.169Z,3.28
2022-10-22T15:10:42.648Z,1.95
2022-10-22T15:13:09.971Z,2.22
2022-10-22T15:15:41.164Z,3.70
2022-10-22T15:18:08.368Z,2.30
2022-10-22T15:20:35.842Z,2.45
2022-10-22T15:23:03.509Z,2.30
2022-10-22T15:25:30.933Z,3.40
2022-10-22T15:28:01.808Z,2.25
2022-10-22T15:30:31.967Z,2.47
2022-10-22T15:32:59.118Z,2.35
2022-10-22T15:35:28.944Z,2.15
2022-10-22T15:37:56.313Z,2.95
2022-10-22T15:40:24.929Z,2.20
2022-10-22T15:42:52.196Z,2.00
2022-10-22T15:45:21.582Z,2.65
2022-10-22T15:47:49.217Z,2.03
2022-10-22T15:50:17.217Z,1.63
2022-10-22T15:52:44.634Z,1.98
2022-10-22T15:57:40.697Z,2.10
2022-10-22T16:00:09.130Z,1.90
2022-10-22T16:02:37.707Z,2.15
2022-10-22T16:05:05.238Z,2.10
2022-10-22T16:07:32.626Z,2.45
2022-10-22T16:10:00.985Z,1.88
2022-10-22T16:12:28.430Z,2.47
2022-10-22T16:14:55.808Z,2.40
2022-10-22T16:17:23.709Z,2.00
2022-10-22T16:19:51.061Z,1.90
2022-10-22T16:22:18.340Z,2.22
2022-10-22T16:24:45.596Z,2.70
2022-10-22T16:27:12.708Z,2.38
2022-10-22T16:29:40.999Z,2.88
2022-10-22T16:32:08.608Z,1.98
2022-10-22T16:34:36.023Z,2.90
2022-10-22T16:37:04.808Z,3.63
2022-10-22T16:39:32.104Z,4.22
2022-10-22T16:41:59.356Z,2.75
2022-10-22T16:44:27.144Z,4.15
2022-10-22T16:46:54.389Z,3.67
2022-10-22T16:49:21.907Z,3.85
2022-10-22T16:51:49.107Z,3.03
2022-10-22T16:54:16.800Z,3.15
2022-10-22T16:56:47.269Z,2.72
2022-10-22T16:59:14.661Z,2.30
2022-10-22T17:01:42.270Z,2.47
2022-10-22T17:04:10.382Z,2.58
2022-10-22T17:06:41.175Z,1.90
2022-10-22T17:09:08.502Z,3.22
2022-10-22T17:11:37.280Z,1.60
2022-10-22T17:14:06.762Z,1.70
2022-10-22T17:16:34.128Z,1.63
2022-10-22T17:19:04.325Z,1.98
2022-10-22T17:21:31.516Z,2.10
2022-10-22T17:23:58.938Z,2.55
2022-10-22T17:26:27.117Z,2.08
2022-10-22T17:28:55.221Z,31.40
2022-10-22T17:31:25.321Z,94.93
2022-10-22T17:33:54.626Z,248.43
2022-10-22T17:36:23.683Z,379.35
2022-10-22T17:39:00.698Z,85.65
2022-10-22T17:41:31.222Z,22.83
2022-10-22T17:44:00.709Z,11.77
2022-10-22T17:46:30.139Z,12.70
2022-10-22T17:52:11.778Z,4.07
2022-10-22T17:54:39.551Z,3.95
2022-10-22T17:57:07.076Z,56.90
2022-10-22T17:59:34.657Z,16.65
2022-10-22T18:02:03.049Z,6.18
2022-10-22T18:04:32.273Z,4.00
2022-10-22T18:07:05.105Z,3.03
2022-10-22T18:09:32.286Z,4.15
2022-10-22T18:11:59.730Z,7.55
2022-10-22T18:14:27.596Z,3.92
2022-10-22T18:16:55.427Z,3.80
2022-10-22T18:19:24.961Z,2.15
2022-10-22T18:21:52.332Z,2.33
2022-10-22T18:24:19.851Z,2.22
2022-10-22T18:26:47.187Z,2.42
2022-10-22T18:29:18.324Z,2.08
2022-10-22T18:31:46.428Z,3.55
2022-10-22T18:34:13.970Z,2.83
2022-10-22T18:36:42.779Z,2.40
2022-10-22T18:39:14.780Z,2.60
2022-10-22T18:41:42.932Z,2.67
2022-10-22T18:44:14.249Z,3.72
2022-10-22T18:46:41.703Z,2.47
2022-10-22T18:49:08.900Z,2.30
2022-10-22T18:51:36.788Z,4.93
2022-10-22T18:54:05.651Z,4.72
2022-10-22T18:56:45.560Z,3.70
2022-10-22T18:59:22.059Z,5.03
2022-10-22T19:01:52.395Z,3.63
2022-10-22T19:04:19.977Z,4.65
2022-10-22T19:06:47.403Z,3.28
2022-10-22T19:09:16.667Z,3.78
2022-10-22T19:11:46.961Z,2.92
2022-10-22T19:14:15.181Z,2.80
2022-10-22T19:16:42.642Z,318.83
2022-10-22T19:19:10.138Z,388.05
2022-10-22T19:21:38.624Z,168.40
2022-10-22T19:24:07.473Z,31.25
2022-10-22T19:26:35.297Z,18.23
2022-10-22T19:29:03.315Z,12.85
2022-10-22T19:31:31.551Z,14.00
2022-10-22T19:34:02.782Z,16.88
2022-10-22T19:36:32.927Z,11.05
2022-10-22T19:39:00.633Z,7.53
2022-10-22T19:41:29.365Z,8.43
2022-10-22T19:43:58.730Z,6.43
2022-10-22T19:46:27.407Z,6.43
2022-10-22T19:48:57.445Z,5.80
2022-10-22T19:51:28.049Z,5.53
2022-10-22T19:54:01.528Z,4.15
2022-10-22T19:56:29.879Z,5.40
2022-10-22T19:58:58.260Z,4.60
2022-10-22T20:01:26.723Z,4.70
2022-10-22T20:03:54.493Z,4.22
2022-10-22T20:06:23.782Z,3.97
2022-10-22T20:08:53.875Z,4.57
2022-10-22T20:11:26.850Z,4.25
2022-10-22T20:13:54.755Z,4.30
2022-10-22T20:16:23.705Z,4.53
2022-10-22T20:18:52.516Z,3.92
2022-10-22T20:21:21.073Z,5.47
2022-10-22T20:23:51.757Z,4.55
2022-10-22T20:26:19.174Z,5.07
2022-10-22T20:28:53.866Z,5.38
2022-10-22T20:31:24.242Z,5.60
2022-10-22T20:33:51.671Z,4.47
2022-10-22T20:36:23.467Z,5.38
2022-10-22T20:38:51.926Z,4.75
2022-10-22T20:41:23.506Z,5.75
2022-10-22T20:43:52.059Z,4.78
2022-10-22T20:46:30.032Z,5.15
2022-10-22T20:49:09.611Z,5.32
2022-10-22T20:51:37.782Z,5.28
2022-10-22T20:54:07.824Z,6.07
2022-10-22T20:56:40.003Z,6.57
2022-10-22T20:59:08.770Z,4.20
2022-10-22T21:01:45.927Z,4.90
2022-10-22T21:04:14.222Z,6.60
2022-10-22T21:06:43.216Z,5.75
2022-10-22T21:09:15.072Z,4.68
2022-10-22T21:11:43.362Z,5.32
2022-10-22T21:14:11.988Z,6.25
2022-10-22T21:16:44.900Z,5.07
2022-10-22T21:19:12.948Z,5.28
2022-10-22T21:21:40.437Z,5.22
2022-10-22T21:24:08.004Z,5.57
2022-10-22T21:26:40.016Z,5.60
2022-10-22T21:29:08.319Z,5.20
2022-10-22T21:31:35.658Z,5.20
2022-10-22T21:34:03.089Z,5.85
2022-10-22T21:36:30.488Z,5.20
2022-10-22T21:38:57.920Z,6.70
2022-10-22T21:41:25.192Z,6.20
2022-10-22T21:43:52.701Z,5.10
2022-10-22T21:46:26.144Z,5.35
2022-10-22T21:49:04.006Z,4.55
2022-10-22T21:51:38.210Z,6.43
2022-10-22T21:54:06.189Z,6.03
2022-10-22T21:56:35.851Z,5.50
2022-10-22T21:59:04.440Z,5.68
2022-10-22T22:01:34.342Z,6.30
2022-10-22T22:04:02.238Z,6.97
2022-10-22T22:06:33.459Z,8.75
2022-10-22T22:09:02.553Z,5.93
2022-10-22T22:11:30.694Z,6.18
2022-10-22T22:13:58.763Z,6.10
2022-10-22T22:16:32.371Z,5.72
2022-10-22T22:19:01.643Z,8.30
2022-10-22T22:21:29.013Z,5.75
2022-10-22T22:23:57.385Z,6.20
2022-10-22T22:26:29.742Z,6.65
2022-10-22T22:28:58.942Z,7.13
2022-10-22T22:31:28.969Z,7.70
2022-10-22T22:34:08.248Z,8.35
2022-10-22T22:36:43.748Z,6.65
2022-10-22T22:39:19.949Z,7.03
2022-10-22T22:41:47.592Z,8.02
2022-10-22T22:44:15.364Z,7.82
2022-10-22T22:46:43.008Z,7.68
2022-10-22T22:49:10.598Z,7.40
2022-10-22T22:51:38.335Z,7.55
2022-10-22T22:54:05.582Z,8.73
2022-10-22T22:56:34.982Z,8.43
2022-10-22T22:59:03.595Z,7.03
2022-10-22T23:01:33.311Z,6.85
2022-10-22T23:04:11.699Z,7.65
2022-10-22T23:06:39.204Z,6.97
2022-10-22T23:09:08.737Z,8.55
2022-10-22T23:11:36.458Z,7.85
2022-10-22T23:14:06.031Z,7.88
2022-10-22T23:16:37.351Z,9.35
2022-10-22T23:19:05.447Z,7.07
2022-10-22T23:21:35.495Z,7.38
2022-10-22T23:24:08.411Z,7.88
2022-10-22T23:26:41.999Z,8.05
2022-10-22T23:29:15.076Z,7.93
2022-10-22T23:31:43.630Z,9.27
2022-10-22T23:34:12.825Z,6.95
2022-10-22T23:36:40.507Z,6.63
2022-10-22T23:39:10.206Z,7.53
2022-10-22T23:41:37.733Z,7.65
2022-10-22T23:44:05.336Z,7.55
2022-10-22T23:46:34.051Z,7.07
2022-10-22T23:49:02.002Z,8.20
2022-10-22T23:51:29.590Z,8.05
2022-10-22T23:54:06.399Z,8.38
2022-10-22T23:56:37.009Z,6.18
2022-10-22T23:59:04.802Z,5.25
